createdAt,value
2023-06-11T00:00:22.679Z,21.71
2023-06-11T00:03:24.814Z,21.92
2023-06-11T00:06:27.112Z,22.18
2023-06-11T00:09:29.801Z,21.67
2023-06-11T00:12:33.876Z,21.51
2023-06-11T00:15:36.063Z,21.58
2023-06-11T00:18:41.897Z,21.63
2023-06-11T00:21:45.058Z,21.69
2023-06-11T00:24:47.467Z,21.66
2023-06-11T00:27:49.436Z,21.28
2023-06-11T00:30:51.336Z,20.69
2023-06-11T00:33:53.409Z,21.42
2023-06-11T00:36:55.322Z,21.26
2023-06-11T00:39:57.510Z,21.56
2023-06-11T00:42:59.382Z,21.05
2023-06-11T00:46:03.684Z,21.55
2023-06-11T00:49:05.913Z,21.50
2023-06-11T00:52:11.834Z,21.51
2023-06-11T00:55:14.214Z,20.84
2023-06-11T00:58:18.691Z,20.97
2023-06-11T01:01:27.634Z,20.98
2023-06-11T01:04:30.572Z,21.04
2023-06-11T01:07:35.382Z,21.28
2023-06-11T01:10:37.308Z,21.27
2023-06-11T01:13:39.276Z,20.77
2023-06-11T01:16:49.149Z,20.53
2023-06-11T01:19:54.140Z,20.33
2023-06-11T01:23:15.504Z,20.90
2023-06-11T01:26:19.733Z,21.01
2023-06-11T01:29:21.751Z,20.66
2023-06-11T01:32:26.079Z,20.37
2023-06-11T01:35:28.475Z,20.92
2023-06-11T01:38:36.227Z,21.05
2023-06-11T01:41:38.250Z,21.41
2023-06-11T01:44:40.234Z,20.94
2023-06-11T01:47:44.424Z,21.24
2023-06-11T01:50:46.642Z,20.91
2023-06-11T01:53:48.707Z,21.07
2023-06-11T01:56:51.098Z,20.58
2023-06-11T01:59:52.959Z,20.57
2023-06-11T02:02:54.891Z,20.97
2023-06-11T02:05:56.826Z,20.93
2023-06-11T02:08:58.656Z,21.10
2023-06-11T02:12:00.773Z,21.02
2023-06-11T02:15:02.652Z,20.95
2023-06-11T02:18:04.643Z,20.80
2023-06-11T02:21:06.588Z,20.34
2023-06-11T02:24:08.613Z,20.67
2023-06-11T02:27:10.933Z,20.76
2023-06-11T02:30:13.143Z,21.06
2023-06-11T02:33:15.036Z,20.64
2023-06-11T02:36:16.873Z,20.64
2023-06-11T02:39:19.019Z,20.62
2023-06-11T02:42:23.017Z,20.67
2023-06-11T02:45:25.011Z,21.03
2023-06-11T02:48:26.846Z,20.63
2023-06-11T02:51:28.781Z,21.22
2023-06-11T02:54:32.831Z,20.68
2023-06-11T02:57:35.136Z,20.94
2023-06-11T03:00:37.230Z,21.24
2023-06-11T03:03:39.117Z,21.26
2023-06-11T03:06:43.242Z,20.71
2023-06-11T03:09:47.445Z,20.88
2023-06-11T03:12:49.326Z,20.99
2023-06-11T03:15:51.342Z,20.86
2023-06-11T03:18:53.414Z,20.59
2023-06-11T03:21:55.573Z,20.93
2023-06-11T03:24:57.456Z,21.09
2023-06-11T03:27:59.433Z,21.32
2023-06-11T03:31:01.585Z,20.63
2023-06-11T03:34:04.437Z,19.95
2023-06-11T03:37:06.469Z,20.64
2023-06-11T03:40:08.989Z,20.15
2023-06-11T03:43:10.899Z,20.31
2023-06-11T03:46:12.871Z,20.71
2023-06-11T03:49:14.802Z,20.89
2023-06-11T03:52:17.526Z,20.96
2023-06-11T03:55:22.432Z,21.09
2023-06-11T03:58:27.156Z,20.97
2023-06-11T04:01:29.142Z,20.54
2023-06-11T04:04:31.236Z,21.24
2023-06-11T04:07:33.435Z,21.10
2023-06-11T04:10:35.559Z,20.95
2023-06-11T04:13:37.521Z,20.97
2023-06-11T04:16:41.971Z,20.96
2023-06-11T04:19:43.844Z,20.03
2023-06-11T04:22:45.947Z,20.85
2023-06-11T04:25:50.216Z,20.60
2023-06-11T04:28:54.137Z,20.59
2023-06-11T04:31:56.184Z,20.84
2023-06-11T04:34:58.246Z,20.45
2023-06-11T04:38:00.222Z,21.09
2023-06-11T04:41:05.752Z,21.31
2023-06-11T04:44:07.877Z,21.54
2023-06-11T04:47:09.768Z,21.71
2023-06-11T04:50:11.717Z,20.76
2023-06-11T04:53:14.067Z,21.01
2023-06-11T04:56:16.226Z,21.94
2023-06-11T04:59:18.136Z,21.67
2023-06-11T05:02:20.862Z,21.32
2023-06-11T05:05:22.798Z,21.61
2023-06-11T05:08:28.158Z,20.67
2023-06-11T05:11:30.058Z,21.56
2023-06-11T05:14:31.920Z,21.05
2023-06-11T05:17:34.169Z,21.30
2023-06-11T05:20:36.723Z,20.74
2023-06-11T05:23:40.412Z,20.82
2023-06-11T05:26:42.333Z,21.15
2023-06-11T05:29:46.218Z,21.67
2023-06-11T05:32:48.451Z,21.43
2023-06-11T05:35:52.309Z,21.49
2023-06-11T05:38:54.462Z,22.06
2023-06-11T05:41:56.461Z,22.35
2023-06-11T05:44:58.421Z,21.77
2023-06-11T05:48:00.764Z,22.33
2023-06-11T05:51:02.775Z,22.42
2023-06-11T05:54:05.592Z,22.00
2023-06-11T05:57:17.962Z,22.12
2023-06-11T06:00:19.922Z,22.38
2023-06-11T06:03:22.252Z,22.79
2023-06-11T06:06:24.213Z,23.49
2023-06-11T06:09:26.119Z,22.68
2023-06-11T06:12:28.065Z,23.61
2023-06-11T06:15:29.916Z,23.38
2023-06-11T06:18:33.592Z,24.25
2023-06-11T06:21:35.867Z,25.33
2023-06-11T06:24:37.776Z,24.48
2023-06-11T06:27:39.695Z,25.18
2023-06-11T06:30:41.588Z,25.24
2023-06-11T06:33:43.615Z,25.05
2023-06-11T06:36:46.263Z,24.16
2023-06-11T06:39:48.242Z,25.90
2023-06-11T06:42:50.223Z,25.50
2023-06-11T06:45:52.111Z,26.10
2023-06-11T06:48:54.113Z,25.08
2023-06-11T06:51:58.572Z,25.19
2023-06-11T06:55:00.433Z,25.34
2023-06-11T06:58:02.463Z,24.52
2023-06-11T07:01:06.659Z,24.53
2023-06-11T07:04:08.590Z,24.40
2023-06-11T07:07:10.949Z,24.84
2023-06-11T07:10:13.499Z,23.98
2023-06-11T07:13:16.702Z,24.18
2023-06-11T07:16:18.882Z,24.52
2023-06-11T07:19:20.942Z,25.06
2023-06-11T07:22:22.875Z,24.83
2023-06-11T07:25:24.734Z,24.43
2023-06-11T07:28:26.896Z,25.01
2023-06-11T07:31:28.886Z,25.71
2023-06-11T07:34:30.768Z,26.73
2023-06-11T07:37:33.203Z,27.66
2023-06-11T07:40:35.160Z,28.14
2023-06-11T07:43:37.226Z,27.93
2023-06-11T07:46:39.117Z,29.04
2023-06-11T07:49:41.188Z,28.99
2023-06-11T07:52:43.162Z,29.61
2023-06-11T07:55:45.022Z,29.22
2023-06-11T07:58:46.965Z,28.21
2023-06-11T08:01:48.987Z,28.50
2023-06-11T08:04:51.468Z,28.36
2023-06-11T08:07:53.485Z,26.87
2023-06-11T08:10:55.706Z,27.25
2023-06-11T08:13:57.639Z,27.58
2023-06-11T08:16:59.765Z,27.29
2023-06-11T08:20:01.935Z,27.86
2023-06-11T08:23:03.880Z,28.57
2023-06-11T08:26:06.244Z,27.73
2023-06-11T08:29:08.119Z,27.01
2023-06-11T08:32:10.237Z,26.93
2023-06-11T08:35:12.203Z,26.95
2023-06-11T08:38:14.310Z,27.02
2023-06-11T08:41:17.124Z,26.69
2023-06-11T08:44:19.113Z,26.38
2023-06-11T08:47:21.098Z,26.68
2023-06-11T08:50:23.369Z,26.02
2023-06-11T08:53:26.944Z,26.31
2023-06-11T08:56:29.152Z,26.40
2023-06-11T08:59:31.038Z,26.58
2023-06-11T09:02:33.053Z,26.38
2023-06-11T09:05:36.507Z,25.43
2023-06-11T09:08:38.436Z,25.66
2023-06-11T09:11:40.634Z,26.30
2023-06-11T09:14:51.596Z,27.40
2023-06-11T09:17:53.427Z,26.97
2023-06-11T09:21:02.277Z,27.05
2023-06-11T09:24:10.599Z,26.84
2023-06-11T09:27:13.246Z,26.99
2023-06-11T09:30:18.558Z,27.47
2023-06-11T09:33:20.649Z,26.46
2023-06-11T09:36:23.099Z,26.63
2023-06-11T09:39:25.131Z,26.57
2023-06-11T09:42:27.919Z,27.73
2023-06-11T09:45:32.829Z,26.53
2023-06-11T09:48:34.849Z,26.62
2023-06-11T09:51:36.975Z,26.68
2023-06-11T09:54:39.115Z,27.22
2023-06-11T09:57:41.662Z,27.65
2023-06-11T10:00:44.289Z,26.73
2023-06-11T10:03:46.940Z,27.91
2023-06-11T10:06:49.332Z,29.65
2023-06-11T10:09:51.878Z,30.09
2023-06-11T10:12:54.456Z,31.09
2023-06-11T10:15:58.773Z,30.54
2023-06-11T10:19:07.774Z,31.26
2023-06-11T10:22:09.837Z,29.71
2023-06-11T10:25:11.848Z,28.20
2023-06-11T10:28:14.501Z,29.13
2023-06-11T10:31:26.447Z,29.06
2023-06-11T10:34:30.591Z,29.61
2023-06-11T10:37:36.817Z,28.82
2023-06-11T10:40:39.106Z,29.04
2023-06-11T10:43:41.772Z,26.76
2023-06-11T10:46:47.492Z,28.35
2023-06-11T10:49:50.416Z,27.30
2023-06-11T10:52:53.301Z,27.99
2023-06-11T10:55:55.224Z,28.17
2023-06-11T10:58:57.327Z,27.25
2023-06-11T11:01:59.217Z,27.38
2023-06-11T11:05:01.368Z,27.58
2023-06-11T11:08:05.409Z,27.06
2023-06-11T11:11:09.818Z,26.59
2023-06-11T11:14:11.756Z,26.08
2023-06-11T11:17:16.223Z,26.81
2023-06-11T11:20:18.804Z,26.94
2023-06-11T11:23:20.914Z,27.29
2023-06-11T11:26:22.904Z,27.32
2023-06-11T11:29:25.124Z,26.71
2023-06-11T11:32:27.932Z,26.54
2023-06-11T11:35:30.231Z,26.15
2023-06-11T11:38:36.865Z,25.48
2023-06-11T11:41:48.814Z,27.17
2023-06-11T11:44:51.025Z,26.53
2023-06-11T11:47:53.429Z,26.26
2023-06-11T11:51:07.814Z,27.09
2023-06-11T11:54:13.914Z,26.84
2023-06-11T11:57:19.736Z,26.87
2023-06-11T12:00:27.668Z,26.67
2023-06-11T12:03:29.961Z,27.14
2023-06-11T12:06:32.282Z,27.37
2023-06-11T12:09:38.445Z,27.34
2023-06-11T12:12:40.311Z,26.41
2023-06-11T12:15:42.300Z,27.28
2023-06-11T12:18:44.484Z,26.97
2023-06-11T12:21:49.080Z,27.26
2023-06-11T12:24:51.957Z,26.52
2023-06-11T12:27:55.532Z,26.90
2023-06-11T12:30:58.172Z,27.00
2023-06-11T12:34:00.203Z,27.11
2023-06-11T12:37:02.410Z,27.34
2023-06-11T12:40:05.475Z,27.49
2023-06-11T12:43:07.458Z,27.14
2023-06-11T12:46:11.808Z,27.11
2023-06-11T12:49:14.456Z,26.99
2023-06-11T12:52:16.843Z,27.44
2023-06-11T12:55:21.943Z,26.58
2023-06-11T12:58:23.881Z,26.00
2023-06-11T13:01:25.838Z,26.81
2023-06-11T13:04:28.044Z,26.38
2023-06-11T13:07:30.008Z,26.41
2023-06-11T13:10:31.862Z,26.17
2023-06-11T13:13:33.823Z,26.23
2023-06-11T13:16:36.079Z,27.20
2023-06-11T13:19:38.003Z,26.93
2023-06-11T13:22:39.956Z,26.25
2023-06-11T13:25:41.911Z,26.80
2023-06-11T13:28:45.234Z,26.33
2023-06-11T13:31:47.283Z,26.11
2023-06-11T13:34:49.332Z,26.25
2023-06-11T13:37:51.464Z,26.97
2023-06-11T13:40:53.391Z,27.52
2023-06-11T13:43:55.593Z,26.58
2023-06-11T13:46:57.595Z,26.44
2023-06-11T13:49:59.500Z,25.96
2023-06-11T13:53:03.822Z,26.43
2023-06-11T13:56:07.455Z,26.90
2023-06-11T13:59:09.322Z,26.90
2023-06-11T14:02:11.374Z,25.90
2023-06-11T14:05:13.390Z,25.97
2023-06-11T14:08:18.954Z,25.18
2023-06-11T14:11:21.140Z,26.26
2023-06-11T14:14:24.372Z,25.72
2023-06-11T14:17:26.647Z,26.15
2023-06-11T14:20:28.785Z,25.74
2023-06-11T14:23:33.540Z,26.12
2023-06-11T14:26:35.596Z,26.37
2023-06-11T14:29:37.585Z,26.35
2023-06-11T14:32:39.658Z,26.09
2023-06-11T14:35:42.755Z,26.12
2023-06-11T14:38:44.864Z,25.98
2023-06-11T14:41:46.769Z,25.78
2023-06-11T14:44:51.395Z,25.62
2023-06-11T14:47:53.430Z,25.41
2023-06-11T14:50:55.830Z,25.75
2023-06-11T14:53:58.449Z,25.36
2023-06-11T14:57:00.681Z,26.27
2023-06-11T15:00:05.626Z,25.48
2023-06-11T15:03:11.996Z,25.36
2023-06-11T15:06:14.875Z,25.74
2023-06-11T15:09:16.903Z,25.07
2023-06-11T15:12:18.844Z,25.04
2023-06-11T15:15:21.012Z,25.65
2023-06-11T15:18:23.010Z,25.97
2023-06-11T15:21:24.947Z,25.66
2023-06-11T15:24:26.883Z,25.56
2023-06-11T15:27:28.724Z,25.30
2023-06-11T15:30:30.750Z,25.45
2023-06-11T15:33:33.146Z,25.61
2023-06-11T15:36:35.026Z,25.30
2023-06-11T15:39:36.979Z,24.73
2023-06-11T15:42:40.110Z,25.79
2023-06-11T15:45:42.110Z,25.57
2023-06-11T15:48:44.069Z,24.90
2023-06-11T15:51:47.781Z,24.96
2023-06-11T15:54:51.043Z,25.36
2023-06-11T15:57:53.072Z,24.96
2023-06-11T16:00:55.140Z,24.91
2023-06-11T16:03:58.954Z,24.19
2023-06-11T16:07:06.414Z,25.16
2023-06-11T16:10:10.089Z,24.73
2023-06-11T16:13:14.234Z,24.49
2023-06-11T16:16:16.173Z,24.53
2023-06-11T16:19:18.317Z,24.61
2023-06-11T16:22:20.361Z,24.40
2023-06-11T16:25:22.273Z,24.90
2023-06-11T16:28:24.225Z,25.27
2023-06-11T16:31:26.225Z,24.36
2023-06-11T16:34:28.366Z,23.98
2023-06-11T16:37:30.278Z,23.72
2023-06-11T16:40:32.297Z,24.02
2023-06-11T16:43:34.307Z,24.53
2023-06-11T16:46:36.294Z,24.36
2023-06-11T16:49:38.309Z,24.53
2023-06-11T16:52:40.183Z,24.58
2023-06-11T16:55:43.446Z,24.88
2023-06-11T16:58:45.609Z,24.89
2023-06-11T17:01:47.461Z,24.29
2023-06-11T17:04:49.496Z,24.57
2023-06-11T17:07:58.268Z,24.26
2023-06-11T17:11:01.839Z,24.26
2023-06-11T17:14:03.759Z,23.57
2023-06-11T17:17:06.103Z,23.27
2023-06-11T17:20:08.418Z,24.04
2023-06-11T17:23:11.582Z,23.52
2023-06-11T17:26:16.461Z,23.81
2023-06-11T17:29:19.358Z,23.43
2023-06-11T17:32:23.548Z,24.75
2023-06-11T17:35:25.604Z,23.79
2023-06-11T17:38:30.036Z,24.13
2023-06-11T17:41:32.160Z,24.06
2023-06-11T17:44:34.289Z,23.58
2023-06-11T17:47:37.889Z,23.65
2023-06-11T17:50:39.993Z,23.94
2023-06-11T17:53:41.900Z,24.01
2023-06-11T17:56:44.242Z,23.56
2023-06-11T17:59:46.174Z,23.77
2023-06-11T18:02:48.270Z,23.35
2023-06-11T18:05:50.564Z,23.90
2023-06-11T18:08:52.475Z,23.76
2023-06-11T18:11:54.410Z,23.22
2023-06-11T18:14:56.385Z,23.29
2023-06-11T18:17:58.460Z,23.86
2023-06-11T18:21:00.464Z,23.53
2023-06-11T18:24:02.447Z,23.95
2023-06-11T18:27:07.250Z,23.72
2023-06-11T18:30:09.469Z,23.20
2023-06-11T18:33:11.586Z,23.44
2023-06-11T18:36:13.534Z,23.63
2023-06-11T18:39:15.540Z,23.99
2023-06-11T18:42:17.975Z,23.36
2023-06-11T18:45:19.980Z,22.79
2023-06-11T18:48:21.960Z,22.25
2023-06-11T18:51:23.915Z,23.08
2023-06-11T18:54:25.877Z,22.08
2023-06-11T18:57:28.940Z,22.34
2023-06-11T19:00:30.903Z,22.11
2023-06-11T19:03:35.488Z,22.03
2023-06-11T19:06:40.293Z,22.04
2023-06-11T19:09:42.210Z,22.85
2023-06-11T19:12:44.337Z,22.74
2023-06-11T19:15:46.534Z,22.30
2023-06-11T19:18:48.457Z,22.18
2023-06-11T19:21:50.426Z,22.31
2023-06-11T19:24:52.401Z,22.37
2023-06-11T19:27:54.445Z,21.92
2023-06-11T19:30:56.435Z,22.27
2023-06-11T19:33:58.342Z,22.24
2023-06-11T19:37:00.369Z,21.98
2023-06-11T19:40:02.491Z,21.99
2023-06-11T19:43:04.526Z,21.61
2023-06-11T19:46:06.484Z,21.75
2023-06-11T19:49:08.427Z,21.32
2023-06-11T19:52:10.432Z,21.46
2023-06-11T19:55:17.608Z,21.15
2023-06-11T19:58:19.582Z,21.14
2023-06-11T20:01:21.826Z,21.07
2023-06-11T20:04:23.784Z,21.54
2023-06-11T20:07:26.309Z,21.62
2023-06-11T20:10:37.193Z,21.68
2023-06-11T20:13:44.067Z,21.03
2023-06-11T20:16:46.821Z,21.49
2023-06-11T20:19:49.261Z,21.32
2023-06-11T20:22:51.274Z,21.46
2023-06-11T20:25:53.141Z,21.24
2023-06-11T20:28:55.167Z,21.10
2023-06-11T20:31:57.281Z,20.71
2023-06-11T20:34:59.343Z,20.74
2023-06-11T20:38:01.281Z,20.29
2023-06-11T20:41:03.743Z,20.18
2023-06-11T20:44:05.709Z,20.26
2023-06-11T20:47:08.222Z,19.90
2023-06-11T20:50:10.565Z,20.14
2023-06-11T20:53:28.072Z,20.52
2023-06-11T20:56:34.667Z,20.16
2023-06-11T20:59:36.626Z,20.09
2023-06-11T21:02:38.618Z,20.25
2023-06-11T21:05:42.621Z,20.20
2023-06-11T21:08:44.604Z,20.08
2023-06-11T21:11:46.513Z,19.98
2023-06-11T21:14:48.477Z,19.30
2023-06-11T21:17:50.680Z,19.28
2023-06-11T21:20:52.672Z,19.08
2023-06-11T21:23:54.669Z,19.37
2023-06-11T21:26:56.684Z,19.37
2023-06-11T21:29:58.636Z,19.49
2023-06-11T21:33:00.728Z,19.01
2023-06-11T21:36:02.809Z,19.84
2023-06-11T21:39:04.830Z,18.89
2023-06-11T21:42:07.273Z,18.81
2023-06-11T21:45:09.272Z,19.18
2023-06-11T21:48:11.237Z,19.37
2023-06-11T21:51:13.186Z,19.06
2023-06-11T21:54:15.192Z,19.07
2023-06-11T21:57:17.190Z,18.73
2023-06-11T22:00:20.189Z,19.24
2023-06-11T22:03:23.972Z,18.57
2023-06-11T22:06:26.118Z,18.96
2023-06-11T22:09:28.354Z,18.67
2023-06-11T22:12:41.023Z,18.60
2023-06-11T22:15:45.138Z,18.34
2023-06-11T22:18:49.793Z,18.74
2023-06-11T22:21:52.280Z,18.45
2023-06-11T22:24:54.163Z,18.88
2023-06-11T22:27:58.745Z,18.72
2023-06-11T22:31:00.849Z,18.59
2023-06-11T22:34:02.839Z,18.55
2023-06-11T22:37:04.886Z,18.35
2023-06-11T22:40:07.260Z,19.14
2023-06-11T22:43:11.065Z,18.79
2023-06-11T22:46:13.338Z,19.00
2023-06-11T22:49:15.378Z,19.49
2023-06-11T22:52:20.468Z,18.50
2023-06-11T22:55:22.536Z,18.28
2023-06-11T22:58:24.441Z,17.89
2023-06-11T23:01:26.643Z,18.98
2023-06-11T23:04:29.776Z,17.72
2023-06-11T23:07:32.390Z,17.85
2023-06-11T23:10:36.742Z,18.17
2023-06-11T23:13:38.576Z,17.80
2023-06-11T23:16:42.078Z,18.80
2023-06-11T23:19:44.693Z,18.15
2023-06-11T23:22:48.425Z,18.18
2023-06-11T23:25:50.823Z,18.25
2023-06-11T23:28:52.758Z,18.48
2023-06-11T23:31:54.827Z,18.22
2023-06-11T23:35:00.766Z,18.66
2023-06-11T23:38:04.009Z,18.28
2023-06-11T23:41:06.156Z,18.75
2023-06-11T23:44:08.298Z,18.55
2023-06-11T23:47:10.248Z,18.40
2023-06-11T23:50:12.445Z,18.93
2023-06-11T23:53:14.542Z,18.59
2023-06-11T23:56:16.421Z,18.08
2023-06-11T23:59:18.285Z,18.11
